Time;durP1;ratioP1;P1;durP2;ratioP2;P2;SDS_P1;SDS_P2;PMS_P1;PMS_P2;Temp;Humidity;BMP_temperature;BMP_pressure;BME280_temperature;BME280_humidity;BME280_pressure;Samples;Min_cycle;Max_cycle;Signal;HPM_P1;HPM_P2
2021/12/25 00:01:05;;;;;;;28.62;20.02;;;;;;;0.92;78.76;99080.30;1739628;82;21380;-53
2021/12/25 00:04:12;;;;;;;35.17;20.75;;;;;;;0.93;78.71;99087.41;1739526;82;21174;-53
2021/12/25 00:07:16;;;;;;;28.50;20.37;;;;;;;0.96;78.68;99082.20;1738696;82;21340;-54
2021/12/25 00:10:21;;;;;;;31.20;20.23;;;;;;;0.94;78.51;99073.42;1738789;82;21356;-54
2021/12/25 00:13:26;;;;;;;32.48;21.15;;;;;;;0.96;78.44;99073.64;1738501;82;21347;-53
2021/12/25 00:16:31;;;;;;;36.63;22.30;;;;;;;0.91;78.30;99058.41;1738090;82;21279;-54
2021/12/25 00:19:37;;;;;;;33.48;20.82;;;;;;;0.90;78.28;99053.17;1738493;82;21304;-55
2021/12/25 00:22:43;;;;;;;28.20;20.30;;;;;;;0.92;78.34;99049.33;1738172;82;21438;-55
2021/12/25 00:25:57;;;;;;;28.15;19.05;;;;;;;0.97;78.36;99059.16;1738452;82;21340;-53
2021/12/25 00:29:04;;;;;;;33.40;23.15;;;;;;;0.99;78.25;99066.60;1738815;82;21276;-53
2021/12/25 00:35:28;;;;;;;29.18;20.52;;;;;;;1.00;78.22;99060.21;1739371;81;21235;-52
2021/12/25 00:38:36;;;;;;;29.00;20.27;;;;;;;1.02;78.34;99063.61;1739303;82;21245;-52
2021/12/25 00:41:41;;;;;;;30.80;20.20;;;;;;;1.06;78.33;99056.09;1738613;82;21375;-54
2021/12/25 00:44:47;;;;;;;28.40;18.95;;;;;;;1.07;78.21;99051.04;1738809;82;21765;-53
2021/12/25 00:47:55;;;;;;;28.27;18.67;;;;;;;1.04;78.12;99049.99;1738962;82;21236;-53
2021/12/25 00:51:04;;;;;;;30.35;20.50;;;;;;;1.00;78.09;99058.86;1738622;82;21371;-53
2021/12/25 00:54:10;;;;;;;30.27;19.67;;;;;;;1.01;78.24;99052.50;1738600;82;21410;-52
2021/12/25 00:57:16;;;;;;;28.27;19.98;;;;;;;1.04;78.27;99052.20;1739102;81;21245;-52
2021/12/25 01:00:24;;;;;;;30.37;18.32;;;;;;;1.05;78.12;99028.78;1739598;81;21224;-54
2021/12/25 01:03:32;;;;;;;26.25;18.70;;;;;;;1.04;78.08;99020.36;1739916;82;21745;-54
2021/12/25 01:06:40;;;;;;;29.67;19.77;;;;;;;1.03;78.10;99034.31;1739627;81;21213;-53
2021/12/25 01:09:46;;;;;;;27.55;18.87;;;;;;;1.09;78.33;99029.70;1732224;81;21817;-53
2021/12/25 01:16:26;;;;;;;28.95;20.23;;;;;;;1.21;78.42;99029.84;1738860;81;21216;-54
2021/12/25 01:23:49;;;;;;;28.12;18.60;;;;;;;1.34;78.47;99008.78;1740453;82;21788;-54
2021/12/25 01:26:12;;;;;;;27.40;18.70;;;;;;;1.35;78.35;99019.03;1731103;81;21216;-53
2021/12/25 01:29:22;;;;;;;30.60;18.70;;;;;;;1.38;78.42;99001.20;1711220;83;21248;-53
2021/12/25 01:50:10;;;;;;;22.93;16.37;;;;;;;1.56;78.31;98956.25;1771576;79;21248;-53
2021/12/25 01:53:14;;;;;;;29.05;18.30;;;;;;;1.60;78.26;98966.23;1768332;80;22027;-54
2021/12/25 01:56:20;;;;;;;25.27;16.40;;;;;;;1.63;78.23;98959.19;1776212;79;21347;-53
2021/12/25 01:59:25;;;;;;;26.85;16.93;;;;;;;1.68;78.22;98952.83;1763775;80;21875;-53
2021/12/25 02:02:29;;;;;;;30.12;16.32;;;;;;;1.73;78.17;98943.78;1738789;82;21840;-54
2021/12/25 02:05:35;;;;;;;26.93;18.07;;;;;;;1.74;78.13;98966.55;1765130;80;21604;-53
2021/12/25 02:08:46;;;;;;;26.95;19.10;;;;;;;1.79;78.26;98966.94;1768673;81;21248;-53
2021/12/25 02:11:57;;;;;;;27.13;18.65;;;;;;;1.87;78.29;98971.55;1769319;79;21293;-54
2021/12/25 02:15:07;;;;;;;25.95;18.00;;;;;;;1.94;78.37;98965.85;1768689;81;21217;-53
2021/12/25 02:18:24;;;;;;;29.30;17.75;;;;;;;2.02;78.37;98961.88;1803461;79;21381;-54
2021/12/25 02:21:35;;;;;;;26.75;17.75;;;;;;;2.07;78.28;98954.16;1774839;80;21386;-53
2021/12/25 02:24:36;;;;;;;26.80;18.60;;;;;;;2.12;78.29;98949.14;1769242;80;21193;-53
2021/12/25 02:27:42;;;;;;;26.25;17.65;;;;;;;2.19;78.31;98944.82;1768221;80;21197;-52
2021/12/25 02:30:54;;;;;;;25.55;16.90;;;;;;;2.24;78.32;98946.52;1774083;80;21233;-53
2021/12/25 02:34:00;;;;;;;24.00;17.27;;;;;;;2.29;78.26;98953.64;1769526;79;21184;-54
2021/12/25 02:37:06;;;;;;;24.70;17.55;;;;;;;2.33;78.23;98950.98;1726399;83;21336;-54
2021/12/25 02:40:12;;;;;;;24.80;17.62;;;;;;;2.35;78.25;98944.90;1733541;82;21245;-52
2021/12/25 02:43:17;;;;;;;27.32;17.05;;;;;;;2.40;78.19;98942.57;1729571;80;21326;-52
2021/12/25 02:46:24;;;;;;;23.38;16.23;;;;;;;2.44;78.21;98948.02;1763011;81;21886;-53
2021/12/25 02:49:29;;;;;;;25.50;17.40;;;;;;;2.46;78.26;98950.02;1769329;81;21391;-54
2021/12/25 02:52:35;;;;;;;24.47;16.70;;;;;;;2.50;78.35;98948.22;1769019;80;21194;-53
2021/12/25 02:55:43;;;;;;;25.65;16.85;;;;;;;2.55;78.43;98941.81;1768733;80;21355;-53
2021/12/25 02:58:50;;;;;;;27.80;17.57;;;;;;;2.58;78.40;98939.31;1769462;80;21358;-53
2021/12/25 03:01:55;;;;;;;26.95;16.67;;;;;;;2.60;78.44;98941.36;1761283;80;21363;-53
2021/12/25 03:05:01;;;;;;;22.85;16.70;;;;;;;2.64;78.58;98931.91;1768188;80;21280;-52
2021/12/25 03:08:07;;;;;;;23.27;16.12;;;;;;;2.69;78.63;98916.06;1767965;81;21316;-52
2021/12/25 03:11:18;;;;;;;23.50;17.02;;;;;;;2.76;78.72;98926.55;1768255;80;21431;-52
2021/12/25 03:14:37;;;;;;;23.77;15.55;;;;;;;2.81;78.79;98926.91;1767979;80;21225;-52
2021/12/25 03:17:40;;;;;;;21.57;14.95;;;;;;;2.85;78.92;98916.14;1768055;80;21383;-53
2021/12/25 03:20:48;;;;;;;22.58;15.05;;;;;;;2.87;78.94;98914.13;1768346;80;21347;-53
2021/12/25 03:23:58;;;;;;;20.00;14.35;;;;;;;2.86;79.02;98910.57;1768067;80;21363;-53
2021/12/25 03:27:04;;;;;;;27.20;16.35;;;;;;;2.88;79.13;98907.70;1767962;80;21193;-51
2021/12/25 03:30:14;;;;;;;25.75;16.00;;;;;;;2.91;79.21;98908.72;1768031;80;21209;-50
2021/12/25 03:33:22;;;;;;;25.72;15.25;;;;;;;2.91;79.29;98904.67;1768073;81;21241;-51
2021/12/25 03:36:29;;;;;;;22.07;15.93;;;;;;;2.92;79.35;98909.91;1768094;81;21414;-51
2021/12/25 03:39:34;;;;;;;20.30;14.03;;;;;;;2.95;79.39;98922.23;1771660;80;21197;-51
2021/12/25 03:42:41;;;;;;;22.02;14.93;;;;;;;2.97;79.36;98920.22;1769768;81;21344;-52
2021/12/25 03:45:49;;;;;;;20.85;14.38;;;;;;;2.96;79.37;98916.70;1774870;81;21448;-52
2021/12/25 03:58:49;;;;;;;20.48;14.13;;;;;;;3.09;79.57;98925.69;1777159;80;21196;-52
2021/12/25 04:01:59;;;;;;;17.27;12.78;;;;;;;3.13;79.63;98917.58;1777168;80;21219;-52
2021/12/25 04:05:02;;;;;;;17.25;12.90;;;;;;;3.15;79.67;98927.73;1734919;82;21342;-52
2021/12/25 04:08:12;;;;;;;19.50;12.65;;;;;;;3.15;79.71;98922.32;1705409;83;22044;-52
2021/12/25 04:11:27;;;;;;;17.42;11.88;;;;;;;3.18;79.78;98930.09;1736629;82;21235;-52
2021/12/25 04:14:26;;;;;;;18.15;13.38;;;;;;;3.19;79.86;98930.95;1706634;83;21332;-51
2021/12/25 04:17:31;;;;;;;16.77;12.18;;;;;;;3.21;79.96;98931.12;1736143;82;21677;-52
2021/12/25 04:20:38;;;;;;;15.25;12.10;;;;;;;3.22;80.05;98932.80;1737068;82;21342;-52
2021/12/25 04:23:45;;;;;;;17.90;12.95;;;;;;;3.25;80.10;98927.58;1743044;81;21199;-53
2021/12/25 04:26:52;;;;;;;17.77;12.13;;;;;;;3.24;80.18;98932.13;1710956;84;21252;-51
2021/12/25 04:30:04;;;;;;;18.37;13.72;;;;;;;3.27;80.30;98943.97;1743335;82;21311;-52
2021/12/25 04:42:41;;;;;;;16.73;13.15;;;;;;;3.32;80.38;98950.23;1706541;84;21259;-53
2021/12/25 05:03:56;;;;;;;15.75;10.05;;;;;;;3.73;80.36;99002.91;1778825;80;21244;-53
2021/12/25 05:07:02;;;;;;;16.00;10.63;;;;;;;3.75;80.34;99004.95;1778865;80;21328;-53
2021/12/25 05:10:08;;;;;;;17.12;10.50;;;;;;;3.75;80.37;99003.59;1778751;80;22078;-52
2021/12/25 05:13:13;;;;;;;15.23;10.43;;;;;;;3.76;80.41;99007.16;1771351;80;21670;-52
2021/12/25 05:16:20;;;;;;;13.85;10.05;;;;;;;3.77;80.42;99006.98;1764573;81;21229;-53
2021/12/25 05:19:25;;;;;;;15.70;10.32;;;;;;;3.79;80.46;99017.12;1759529;80;21363;-54
2021/12/25 05:22:31;;;;;;;16.17;10.63;;;;;;;3.81;80.52;99016.45;1719999;83;21186;-55
2021/12/25 05:25:41;;;;;;;16.23;10.78;;;;;;;3.83;80.54;99023.05;1719733;83;21219;-53
2021/12/25 05:28:57;;;;;;;14.18;10.30;;;;;;;3.86;80.62;99023.57;1763821;80;21340;-54
2021/12/25 05:31:57;;;;;;;17.32;10.82;;;;;;;3.88;80.66;99031.52;1768340;80;21372;-52
2021/12/25 05:35:05;;;;;;;16.77;11.68;;;;;;;3.92;80.75;99039.63;1770804;80;21181;-53
2021/12/25 05:38:22;;;;;;;16.02;11.35;;;;;;;3.95;80.76;99040.65;1768075;80;21817;-52
2021/12/25 05:41:37;;;;;;;20.85;13.72;;;;;;;3.98;80.79;99043.88;1768346;80;21857;-51
2021/12/25 05:44:50;;;;;;;22.07;14.23;;;;;;;4.02;80.78;99049.81;1768293;80;21536;-53
2021/12/25 05:48:01;;;;;;;19.73;13.30;;;;;;;4.03;80.75;99053.70;1767878;80;21383;-53
2021/12/25 05:51:13;;;;;;;18.65;12.15;;;;;;;4.06;80.68;99059.31;1768402;81;21351;-53
2021/12/25 05:54:21;;;;;;;20.05;12.70;;;;;;;4.07;80.64;99071.33;1767097;81;21265;-53
2021/12/25 05:57:45;;;;;;;21.35;12.45;;;;;;;4.11;80.64;99073.16;1768052;80;21367;-52
2021/12/25 06:01:05;;;;;;;19.35;12.50;;;;;;;4.13;80.55;99074.71;1742945;80;21221;-52
2021/12/25 06:04:11;;;;;;;18.65;12.18;;;;;;;4.14;80.37;99088.58;1768313;81;21379;-52
2021/12/25 06:07:16;;;;;;;19.60;12.20;;;;;;;4.14;80.30;99098.05;1768345;81;21229;-53
2021/12/25 06:10:21;;;;;;;18.57;13.08;;;;;;;4.14;80.23;99106.17;1768152;81;21240;-52
2021/12/25 06:13:27;;;;;;;19.82;12.58;;;;;;;4.15;80.17;99114.66;1768149;81;21809;-52
2021/12/25 06:16:34;;;;;;;20.30;13.65;;;;;;;4.16;80.17;99124.97;1767512;81;21221;-52
2021/12/25 06:19:42;;;;;;;19.50;13.18;;;;;;;4.18;80.16;99116.17;1764715;80;21328;-51
2021/12/25 06:23:04;;;;;;;23.85;14.23;;;;;;;4.19;80.16;99117.36;1768013;79;21323;-51
2021/12/25 06:26:30;;;;;;;24.65;14.87;;;;;;;4.22;80.14;99115.67;1766971;80;21247;-52
2021/12/25 06:29:43;;;;;;;22.45;14.07;;;;;;;4.25;80.14;99127.52;1769484;79;21808;-55
2021/12/25 06:33:03;;;;;;;19.70;12.55;;;;;;;4.29;80.08;99122.63;1763439;80;21339;-55
2021/12/25 06:36:19;;;;;;;19.02;13.22;;;;;;;4.32;80.09;99128.56;1767475;80;21343;-56
2021/12/25 06:39:28;;;;;;;20.80;13.48;;;;;;;4.33;80.05;99132.09;1772086;79;21820;-55
2021/12/25 06:42:41;;;;;;;20.97;13.13;;;;;;;4.37;79.97;99141.60;1767982;80;21336;-55
2021/12/25 06:45:46;;;;;;;21.97;13.83;;;;;;;4.34;79.91;99142.77;1768006;80;21359;-56
2021/12/25 06:48:53;;;;;;;25.72;15.50;;;;;;;4.34;79.97;99154.13;1787797;79;21379;-54
2021/12/25 06:52:01;;;;;;;20.12;13.90;;;;;;;4.35;79.99;99152.60;1765308;80;21355;-55
2021/12/25 06:55:24;;;;;;;19.27;13.90;;;;;;;4.37;80.02;99160.06;1762322;81;21422;-55
2021/12/25 06:58:43;;;;;;;19.12;13.62;;;;;;;4.41;80.01;99151.93;1767429;81;21660;-57
2021/12/25 07:01:50;;;;;;;18.98;13.30;;;;;;;4.46;79.96;99146.01;1767623;81;21327;-55
2021/12/25 07:05:00;;;;;;;17.27;12.13;;;;;;;4.50;79.92;99150.92;1730981;81;21424;-54
2021/12/25 07:08:10;;;;;;;18.85;13.05;;;;;;;4.55;79.80;99162.11;1767710;81;21764;-55
2021/12/25 07:11:21;;;;;;;23.98;15.98;;;;;;;4.61;79.70;99160.08;1738740;80;21365;-55
2021/12/25 07:14:30;;;;;;;19.95;13.95;;;;;;;4.65;79.52;99164.66;1768389;80;21426;-54
2021/12/25 07:17:40;;;;;;;18.30;13.23;;;;;;;4.66;79.34;99169.08;1768445;80;21330;-55
2021/12/25 07:21:05;;;;;;;17.85;11.88;;;;;;;4.68;79.23;99178.39;1766045;81;21393;-55
2021/12/25 07:24:14;;;;;;;21.55;14.28;;;;;;;4.68;79.12;99179.75;1730857;80;21330;-54
2021/12/25 07:27:21;;;;;;;22.62;14.75;;;;;;;4.72;79.00;99189.23;1732331;82;21209;-54
2021/12/25 07:30:26;;;;;;;20.48;12.45;;;;;;;4.74;78.93;99179.08;1743618;82;21221;-56
2021/12/25 07:33:35;;;;;;;21.27;13.25;;;;;;;4.79;78.80;99187.02;1743644;82;21174;-55
2021/12/25 07:36:40;;;;;;;23.15;14.10;;;;;;;4.85;78.62;99211.27;1744754;82;21217;-54
2021/12/25 07:39:46;;;;;;;17.70;12.23;;;;;;;4.89;78.47;99216.68;1743224;82;21184;-54
2021/12/25 07:42:54;;;;;;;16.35;11.40;;;;;;;4.94;78.28;99233.30;1752779;81;22156;-55
2021/12/25 07:46:01;;;;;;;17.82;12.73;;;;;;;4.99;78.13;99246.70;1719780;82;21373;-54
2021/12/25 07:49:07;;;;;;;19.55;13.15;;;;;;;5.03;77.97;99255.33;1698131;82;21213;-54
2021/12/25 07:52:13;;;;;;;25.40;14.73;;;;;;;5.04;77.76;99263.33;1739442;82;21346;-55
2021/12/25 07:55:18;;;;;;;19.82;13.58;;;;;;;5.06;77.64;99269.93;1753040;80;21259;-55
2021/12/25 07:58:25;;;;;;;20.62;13.22;;;;;;;5.08;77.44;99258.39;1776981;80;21536;-54
2021/12/25 08:01:32;;;;;;;23.92;14.03;;;;;;;5.10;77.22;99264.50;1775907;80;21953;-53
2021/12/25 08:04:37;;;;;;;21.15;14.35;;;;;;;5.16;77.11;99274.17;1776281;80;21374;-53
2021/12/25 08:07:43;;;;;;;21.77;14.85;;;;;;;5.22;77.03;99272.62;1775744;80;21224;-54
2021/12/25 08:10:51;;;;;;;19.73;13.30;;;;;;;5.26;76.80;99273.50;1745519;81;21714;-53
2021/12/25 08:13:58;;;;;;;19.75;12.98;;;;;;;5.28;76.50;99269.27;1751298;80;21312;-53
2021/12/25 08:17:05;;;;;;;22.45;13.80;;;;;;;5.27;76.31;99275.19;1776937;80;21165;-53
2021/12/25 08:20:20;;;;;;;22.75;13.93;;;;;;;5.29;76.23;99282.66;1759040;80;21732;-53
2021/12/25 08:23:43;;;;;;;23.90;15.40;;;;;;;5.30;76.11;99281.62;1771831;81;21320;-52
2021/12/25 08:27:07;;;;;;;24.63;13.88;;;;;;;5.30;75.92;99278.05;1769853;80;21765;-52
2021/12/25 08:30:27;;;;;;;26.17;16.15;;;;;;;5.31;75.81;99295.52;1769720;80;21220;-53
2021/12/25 08:33:52;;;;;;;20.62;13.85;;;;;;;5.32;75.77;99304.02;1739646;82;21569;-52
2021/12/25 08:37:05;;;;;;;21.93;14.05;;;;;;;5.34;75.60;99320.98;1724363;81;21201;-52
2021/12/25 08:40:13;;;;;;;22.48;15.10;;;;;;;5.34;75.59;99303.84;1739661;82;21710;-51
2021/12/25 08:43:24;;;;;;;21.77;13.65;;;;;;;5.31;75.46;99298.77;1740381;82;21295;-51
2021/12/25 08:46:55;;;;;;;21.48;12.23;;;;;;;5.28;75.48;99314.03;1739631;82;21275;-51
2021/12/25 08:49:56;;;;;;;22.93;14.33;;;;;;;5.27;75.54;99329.95;1739375;80;21390;-50
2021/12/25 08:53:02;;;;;;;19.85;13.25;;;;;;;5.24;75.53;99331.64;1737698;81;21192;-51
2021/12/25 08:56:07;;;;;;;20.23;13.83;;;;;;;5.20;75.53;99329.77;1743788;81;21379;-50
2021/12/25 08:59:12;;;;;;;18.10;12.05;;;;;;;5.17;75.56;99322.49;1737558;82;22185;-52
2021/12/25 09:02:23;;;;;;;14.87;10.70;;;;;;;5.13;75.67;99323.83;1738124;81;21879;-53
2021/12/25 09:05:28;;;;;;;15.70;11.55;;;;;;;5.12;75.61;99328.39;1740719;81;21379;-52
2021/12/25 09:08:35;;;;;;;19.37;13.08;;;;;;;5.13;75.64;99337.39;1737615;82;21395;-51
2021/12/25 09:11:50;;;;;;;19.12;13.45;;;;;;;5.15;75.67;99343.50;1737863;82;21382;-51
2021/12/25 09:14:57;;;;;;;19.95;14.45;;;;;;;5.15;75.64;99350.28;1756371;81;21240;-53
2021/12/25 09:18:05;;;;;;;21.60;14.05;;;;;;;5.13;75.59;99363.16;1757212;81;21346;-52
2021/12/25 09:21:14;;;;;;;19.20;13.55;;;;;;;5.14;75.66;99363.52;1757763;81;21275;-52
2021/12/25 09:24:20;;;;;;;18.17;12.63;;;;;;;5.13;75.67;99380.78;1763947;80;21413;-52
2021/12/25 09:27:26;;;;;;;16.65;12.30;;;;;;;5.11;75.68;99394.52;1763744;80;21177;-51
2021/12/25 09:30:33;;;;;;;17.17;11.60;;;;;;;5.12;75.53;99408.94;1754005;81;21212;-52
2021/12/25 09:33:40;;;;;;;15.72;11.35;;;;;;;5.11;75.36;99407.22;1755007;81;21196;-52
2021/12/25 09:36:47;;;;;;;17.23;11.20;;;;;;;5.13;75.25;99400.63;1755638;81;21370;-51
2021/12/25 09:39:54;;;;;;;17.25;10.00;;;;;;;5.18;75.02;99418.62;1755319;81;21184;-52
2021/12/25 09:43:00;;;;;;;15.35;9.45;;;;;;;5.18;73.85;99391.99;1754780;81;21172;-51
2021/12/25 09:46:06;;;;;;;13.55;9.68;;;;;;;5.17;72.90;99401.16;1754313;81;21212;-52
2021/12/25 09:49:13;;;;;;;14.10;10.28;;;;;;;5.12;72.46;99408.41;1754468;81;21207;-52
2021/12/25 09:52:19;;;;;;;13.58;9.13;;;;;;;5.10;72.29;99409.59;1784772;79;21476;-51
2021/12/25 09:55:25;;;;;;;12.65;8.73;;;;;;;5.06;72.18;99409.60;1753488;81;21814;-52
2021/12/25 09:58:31;;;;;;;10.80;7.70;;;;;;;5.03;71.85;99414.83;1752142;81;21168;-50
2021/12/25 10:01:53;;;;;;;13.58;8.65;;;;;;;4.97;71.34;99421.41;1753622;80;21339;-50
2021/12/25 10:05:05;;;;;;;12.88;8.88;;;;;;;4.88;70.95;99415.63;1751026;81;21241;-51
2021/12/25 10:08:20;;;;;;;10.78;7.67;;;;;;;4.78;70.81;99412.19;1755134;81;21209;-52
2021/12/25 10:11:30;;;;;;;13.25;9.15;;;;;;;4.73;70.82;99419.45;1753346;81;21339;-51
2021/12/25 10:14:38;;;;;;;11.35;7.70;;;;;;;4.68;70.95;99420.97;1756392;81;21244;-51
2021/12/25 10:17:54;;;;;;;10.53;7.20;;;;;;;4.72;71.21;99422.33;1752632;81;21900;-51
2021/12/25 10:20:59;;;;;;;9.35;6.72;;;;;;;4.75;70.94;99420.64;1755553;80;21722;-50
2021/12/25 10:24:28;;;;;;;14.03;8.20;;;;;;;4.72;70.31;99457.06;1760152;81;21220;-51
2021/12/25 10:27:35;;;;;;;16.77;9.50;;;;;;;4.68;70.07;99452.97;1769179;80;21382;-52
2021/12/25 10:30:54;;;;;;;9.33;6.60;;;;;;;4.71;70.19;99449.10;1769498;80;21873;-51
2021/12/25 10:34:01;;;;;;;9.70;6.97;;;;;;;4.83;70.05;99451.86;1788427;78;21359;-51
2021/12/25 10:37:19;;;;;;;8.50;6.42;;;;;;;5.01;69.89;99448.03;1751931;81;21324;-51
2021/12/25 10:40:39;;;;;;;9.40;7.35;;;;;;;5.16;69.42;99442.84;1753307;80;21919;-51
2021/12/25 10:43:47;;;;;;;12.35;7.75;;;;;;;5.20;69.20;99445.05;1764177;81;21838;-51
2021/12/25 10:47:13;;;;;;;8.65;5.78;;;;;;;5.28;68.94;99455.93;1739037;81;21200;-50
2021/12/25 10:50:25;;;;;;;7.90;5.42;;;;;;;5.26;68.28;99448.98;1736136;82;21947;-50
2021/12/25 10:53:41;;;;;;;8.35;5.87;;;;;;;5.21;68.28;99455.41;1734625;82;21726;-52
2021/12/25 10:56:44;;;;;;;8.95;6.22;;;;;;;5.20;67.79;99459.14;1712170;84;21218;-51
2021/12/25 10:59:54;;;;;;;12.13;7.20;;;;;;;5.09;67.40;99473.00;1691195;83;21822;-50
2021/12/25 11:03:10;;;;;;;7.50;5.72;;;;;;;4.98;67.57;99461.09;1750869;81;21315;-51
2021/12/25 11:06:23;;;;;;;9.78;6.92;;;;;;;4.85;67.62;99479.66;1786121;79;21212;-51
2021/12/25 11:09:31;;;;;;;11.18;7.40;;;;;;;4.69;67.96;99495.84;1743158;82;21773;-51
2021/12/25 11:12:38;;;;;;;13.78;6.22;;;;;;;4.50;68.33;99505.87;1748051;81;21181;-50
2021/12/25 11:15:46;;;;;;;9.13;6.58;;;;;;;4.35;68.71;99509.31;1748105;82;21255;-49
2021/12/25 11:19:06;;;;;;;8.78;6.10;;;;;;;4.23;68.94;99512.77;1748651;82;21184;-51
2021/12/25 11:22:18;;;;;;;9.30;6.72;;;;;;;4.12;69.06;99508.95;1754135;81;21775;-51
2021/12/25 11:25:25;;;;;;;9.88;6.35;;;;;;;4.02;68.88;99529.88;1764744;81;21362;-51
2021/12/25 11:28:30;;;;;;;11.73;7.45;;;;;;;3.92;68.56;99541.27;1799191;79;21182;-53
2021/12/25 11:31:35;;;;;;;11.63;8.25;;;;;;;3.85;68.61;99553.74;1799888;79;21218;-54
2021/12/25 11:34:40;;;;;;;10.20;7.45;;;;;;;3.79;68.46;99563.80;1800192;79;21984;-52
2021/12/25 11:37:46;;;;;;;9.45;6.45;;;;;;;3.79;68.21;99538.62;1798331;79;21307;-51
2021/12/25 11:40:54;;;;;;;13.75;8.25;;;;;;;3.78;68.02;99567.53;1775395;79;21340;-51
2021/12/25 11:44:03;;;;;;;9.88;6.70;;;;;;;3.76;67.87;99562.77;1745101;81;21188;-51
2021/12/25 11:47:07;;;;;;;8.43;6.03;;;;;;;3.72;67.31;99543.79;1747695;81;21173;-51
2021/12/25 11:50:23;;;;;;;9.88;6.58;;;;;;;3.64;67.11;99556.37;1778713;80;21200;-50
2021/12/25 11:57:34;;;;;;;9.45;6.78;;;;;;;3.52;67.03;99611.18;1794682;79;21248;-52
2021/12/25 12:00:19;;;;;;;10.55;6.37;;;;;;;3.48;66.82;99618.39;1797772;79;21717;-53
2021/12/25 12:03:46;;;;;;;9.55;6.47;;;;;;;3.44;66.63;99621.89;1797897;79;21945;-51
2021/12/25 12:06:57;;;;;;;10.70;6.72;;;;;;;3.42;66.51;99646.91;1799367;79;21220;-50
2021/12/25 12:10:19;;;;;;;11.45;7.75;;;;;;;3.43;66.59;99612.58;1757460;80;21295;-53
2021/12/25 12:13:37;;;;;;;10.68;7.05;;;;;;;3.46;66.52;99638.84;1768171;79;21165;-53
2021/12/25 12:17:07;;;;;;;12.18;7.33;;;;;;;3.54;66.12;99649.77;1735552;81;21318;-53
2021/12/25 12:20:19;;;;;;;12.43;6.85;;;;;;;3.60;65.30;99643.75;1787234;79;21335;-50
2021/12/25 12:24:23;;;;;;;10.53;7.17;;;;;;;3.54;64.73;99676.83;1778776;79;21177;-52
2021/12/25 12:26:58;;;;;;;14.80;8.83;;;;;;;3.51;64.77;99671.71;1796163;79;21533;-52
2021/12/25 12:30:04;;;;;;;15.13;8.73;;;;;;;3.50;64.86;99675.92;1799503;79;21204;-51
2021/12/25 12:33:21;;;;;;;10.90;7.20;;;;;;;3.48;64.92;99693.66;1792321;79;21179;-51
2021/12/25 12:36:30;;;;;;;10.63;7.33;;;;;;;3.49;65.11;99677.77;1791580;79;21232;-51
2021/12/25 12:39:36;;;;;;;11.85;7.70;;;;;;;3.51;65.26;99690.66;1789235;79;21331;-52
2021/12/25 12:42:58;;;;;;;11.35;7.03;;;;;;;3.53;65.17;99705.38;1799763;79;21756;-52
2021/12/25 12:46:04;;;;;;;10.58;7.10;;;;;;;3.52;65.10;99689.64;1765844;81;21209;-51
2021/12/25 12:49:14;;;;;;;12.65;7.75;;;;;;;3.54;65.07;99698.95;1766717;80;21696;-51
2021/12/25 12:52:36;;;;;;;12.68;8.50;;;;;;;3.54;64.94;99694.41;1762094;80;21178;-51
2021/12/25 12:55:40;;;;;;;11.50;7.42;;;;;;;3.53;64.56;99710.80;1762577;80;21184;-50
2021/12/25 12:58:45;;;;;;;14.87;8.80;;;;;;;3.49;64.43;99721.05;1759018;80;21715;-51
2021/12/25 13:01:54;;;;;;;14.03;8.73;;;;;;;3.45;64.41;99708.83;1752067;80;21539;-51
2021/12/25 13:05:03;;;;;;;14.38;9.28;;;;;;;3.43;64.47;99715.37;1758341;81;21606;-52
2021/12/25 13:08:19;;;;;;;17.57;12.10;;;;;;;3.40;64.43;99711.61;1761508;79;21183;-52
2021/12/25 13:11:33;;;;;;;17.70;11.43;;;;;;;3.37;64.54;99718.67;1764718;81;21255;-52
2021/12/25 13:14:36;;;;;;;17.30;10.30;;;;;;;3.35;64.80;99713.90;1762705;81;21342;-52
2021/12/25 13:17:42;;;;;;;15.23;8.63;;;;;;;3.33;65.04;99716.75;1763190;81;21239;-52
2021/12/25 13:20:55;;;;;;;18.62;11.33;;;;;;;3.32;65.37;99739.40;1758040;81;21370;-51
2021/12/25 13:24:08;;;;;;;14.05;9.75;;;;;;;3.29;65.65;99749.16;1766052;81;22022;-51
2021/12/25 13:27:22;;;;;;;20.35;10.75;;;;;;;3.25;65.62;99755.84;1765599;81;21687;-52
2021/12/25 13:30:30;;;;;;;62.98;24.37;;;;;;;3.20;65.57;99747.33;1726966;82;21217;-52
2021/12/25 13:33:39;;;;;;;71.82;28.73;;;;;;;3.16;65.51;99775.64;1758200;81;21326;-52
2021/12/25 13:36:48;;;;;;;94.10;33.55;;;;;;;3.14;65.62;99778.98;1746415;81;21740;-52
2021/12/25 13:39:56;;;;;;;78.97;32.58;;;;;;;3.12;65.61;99776.95;1765648;81;21160;-52
2021/12/25 13:43:05;;;;;;;74.70;31.77;;;;;;;3.08;65.67;99759.81;1765428;81;21314;-53
2021/12/25 13:46:13;;;;;;;54.33;25.85;;;;;;;3.08;65.80;99764.20;1765909;81;21199;-52
2021/12/25 13:49:45;;;;;;;29.57;18.50;;;;;;;3.11;65.68;99780.63;1765618;81;21706;-52
2021/12/25 13:53:17;;;;;;;18.37;12.20;;;;;;;3.11;65.65;99782.50;1765899;81;21211;-53
2021/12/25 13:56:02;;;;;;;19.42;12.50;;;;;;;3.08;65.75;99767.39;1779543;79;21200;-52
2021/12/25 13:59:16;;;;;;;19.95;12.47;;;;;;;3.03;65.89;99789.95;1781358;78;21192;-53
2021/12/25 14:02:21;;;;;;;22.93;13.48;;;;;;;3.01;66.09;99826.59;1781505;79;21184;-52
2021/12/25 14:05:30;;;;;;;16.05;10.65;;;;;;;2.98;66.33;99813.88;1769531;79;21367;-52
2021/12/25 14:08:35;;;;;;;20.92;11.75;;;;;;;2.95;66.51;99804.67;1767380;80;21319;-53
2021/12/25 14:11:46;;;;;;;15.58;10.40;;;;;;;2.92;66.80;99799.06;1766849;80;21356;-53
2021/12/25 14:14:52;;;;;;;16.93;10.65;;;;;;;2.94;66.97;99784.05;1786661;80;21177;-53
2021/12/25 14:17:57;;;;;;;13.05;9.03;;;;;;;2.96;67.13;99788.83;1743879;80;21363;-53
2021/12/25 14:21:21;;;;;;;17.85;11.30;;;;;;;2.99;67.28;99793.45;1728575;82;21538;-53
2021/12/25 14:24:27;;;;;;;14.03;9.38;;;;;;;3.01;67.33;99813.59;1799981;79;21713;-52
2021/12/25 14:27:31;;;;;;;13.83;10.58;;;;;;;3.06;67.47;99831.56;1773390;79;21347;-52
2021/12/25 14:30:46;;;;;;;19.10;11.57;;;;;;;3.11;67.51;99819.83;1764699;81;21347;-52
2021/12/25 14:34:08;;;;;;;35.45;19.87;;;;;;;3.14;67.56;99818.19;1766801;80;21197;-53
2021/12/25 14:37:14;;;;;;;43.28;25.37;;;;;;;3.15;67.56;99837.49;1765471;80;21712;-52
2021/12/25 14:40:24;;;;;;;35.70;21.40;;;;;;;3.18;67.66;99843.97;1760254;80;21318;-52
2021/12/25 14:43:38;;;;;;;26.15;16.20;;;;;;;3.18;67.55;99843.97;1740088;81;21434;-53
2021/12/25 14:46:45;;;;;;;21.87;14.35;;;;;;;3.15;67.54;99851.02;1760299;80;21828;-52
2021/12/25 14:49:54;;;;;;;17.55;12.37;;;;;;;3.12;67.60;99855.84;1764752;81;21387;-52
2021/12/25 14:53:20;;;;;;;13.10;9.50;;;;;;;3.09;67.49;99835.36;1708345;81;21729;-53
2021/12/25 14:56:36;;;;;;;16.32;9.73;;;;;;;3.08;67.46;99849.37;1737602;80;21434;-52
2021/12/25 14:59:46;;;;;;;16.00;10.53;;;;;;;3.08;67.34;99864.73;1781519;79;21346;-52
2021/12/25 15:02:53;;;;;;;19.60;14.15;;;;;;;3.08;67.01;99856.61;1750511;80;21192;-52
2021/12/25 15:06:00;;;;;;;16.77;11.97;;;;;;;3.06;66.58;99861.30;1786018;79;22560;-52
2021/12/25 15:09:31;;;;;;;18.80;10.68;;;;;;;3.04;66.29;99845.74;1767338;81;21256;-52
2021/12/25 15:12:42;;;;;;;19.37;12.58;;;;;;;3.03;65.85;99845.37;1736847;82;21228;-52
2021/12/25 15:16:02;;;;;;;16.07;11.10;;;;;;;3.03;65.69;99858.88;1748998;81;21356;-52
2021/12/25 15:19:09;;;;;;;16.73;11.18;;;;;;;3.06;65.40;99868.92;1737301;81;21231;-52
2021/12/25 15:22:24;;;;;;;17.07;10.72;;;;;;;3.04;65.08;99866.02;1734904;81;22113;-53
2021/12/25 15:25:31;;;;;;;20.57;13.85;;;;;;;3.02;65.02;99852.64;1761227;81;21745;-52
2021/12/25 15:28:38;;;;;;;16.00;11.45;;;;;;;3.03;64.94;99856.18;1757558;80;21165;-52
2021/12/25 15:31:43;;;;;;;19.67;12.10;;;;;;;3.02;65.11;99872.92;1718614;82;21860;-52
2021/12/25 15:35:06;;;;;;;27.55;15.83;;;;;;;3.04;65.29;99883.59;1767925;81;21386;-52
2021/12/25 15:38:10;;;;;;;59.65;30.12;;;;;;;3.08;65.33;99891.77;1745587;81;21335;-52
2021/12/25 15:41:15;;;;;;;71.92;35.58;;;;;;;3.11;65.26;99918.52;1757288;79;21343;-52
2021/12/25 15:44:20;;;;;;;59.53;30.20;;;;;;;3.15;65.23;99903.73;1737337;82;21859;-53
2021/12/25 15:47:25;;;;;;;56.65;29.23;;;;;;;3.18;65.28;99894.48;1737263;81;21472;-52
2021/12/25 15:50:34;;;;;;;53.33;27.13;;;;;;;3.18;65.39;99889.06;1746562;81;21535;-52
2021/12/25 15:53:41;;;;;;;45.95;24.02;;;;;;;3.16;65.44;99894.63;1766646;79;21250;-53